sensor_id;sensor_type;location;lat;lon;timestamp;temperature;humidity
4010;DHT22;2019;48.200;11.548;2022-09-09T00:07:16;20.00;65.40
4010;DHT22;2019;48.200;11.548;2022-09-09T00:09:49;20.00;65.30
4010;DHT22;2019;48.200;11.548;2022-09-09T00:12:39;20.00;65.30
4010;DHT22;2019;48.200;11.548;2022-09-09T00:15:18;20.00;65.50
4010;DHT22;2019;48.200;11.548;2022-09-09T00:17:53;19.90;65.40
4010;DHT22;2019;48.200;11.548;2022-09-09T00:20:29;19.90;65.60
4010;DHT22;2019;48.200;11.548;2022-09-09T00:23:24;19.90;65.90
4010;DHT22;2019;48.200;11.548;2022-09-09T00:26:04;20.00;66.20
4010;DHT22;2019;48.200;11.548;2022-09-09T00:28:33;19.90;66.10
4010;DHT22;2019;48.200;11.548;2022-09-09T00:31:13;19.90;66.10
4010;DHT22;2019;48.200;11.548;2022-09-09T00:33:39;20.00;66.30
4010;DHT22;2019;48.200;11.548;2022-09-09T00:36:15;19.90;66.20
4010;DHT22;2019;48.200;11.548;2022-09-09T00:38:49;19.90;66.30
4010;DHT22;2019;48.200;11.548;2022-09-09T00:46:53;20.00;66.70
4010;DHT22;2019;48.200;11.548;2022-09-09T00:49:25;19.90;66.50
4010;DHT22;2019;48.200;11.548;2022-09-09T00:55:11;19.90;67.20
4010;DHT22;2019;48.200;11.548;2022-09-09T00:57:39;19.90;66.80
4010;DHT22;2019;48.200;11.548;2022-09-09T01:00:31;19.90;66.70
4010;DHT22;2019;48.200;11.548;2022-09-09T01:03:19;19.90;66.90
4010;DHT22;2019;48.200;11.548;2022-09-09T01:11:58;19.80;66.90
4010;DHT22;2019;48.200;11.548;2022-09-09T01:17:15;19.70;67.70
4010;DHT22;2019;48.200;11.548;2022-09-09T01:25:27;19.70;67.30
4010;DHT22;2019;48.200;11.548;2022-09-09T01:27:57;19.70;67.50
4010;DHT22;2019;48.200;11.548;2022-09-09T01:30:25;19.70;67.40
4010;DHT22;2019;48.200;11.548;2022-09-09T01:32:56;19.70;67.60
4010;DHT22;2019;48.200;11.548;2022-09-09T01:38:17;19.70;67.80
4010;DHT22;2019;48.200;11.548;2022-09-09T01:40:43;19.60;67.80
4010;DHT22;2019;48.200;11.548;2022-09-09T01:43:09;19.60;67.90
4010;DHT22;2019;48.200;11.548;2022-09-09T01:45:35;19.60;68.00
4010;DHT22;2019;48.200;11.548;2022-09-09T01:48:02;19.60;68.00
4010;DHT22;2019;48.200;11.548;2022-09-09T01:50:28;19.60;68.00
4010;DHT22;2019;48.200;11.548;2022-09-09T01:52:57;19.60;68.10
4010;DHT22;2019;48.200;11.548;2022-09-09T01:55:33;19.60;68.10
4010;DHT22;2019;48.200;11.548;2022-09-09T02:00:49;19.50;67.90
4010;DHT22;2019;48.200;11.548;2022-09-09T02:03:28;19.50;67.90
4010;DHT22;2019;48.200;11.548;2022-09-09T02:08:49;19.40;68.00
4010;DHT22;2019;48.200;11.548;2022-09-09T02:11:18;19.40;67.90
4010;DHT22;2019;48.200;11.548;2022-09-09T02:13:46;19.50;68.10
4010;DHT22;2019;48.200;11.548;2022-09-09T02:16:35;19.40;68.10
4010;DHT22;2019;48.200;11.548;2022-09-09T02:19:07;19.40;68.10
4010;DHT22;2019;48.200;11.548;2022-09-09T02:21:35;19.30;68.10
4010;DHT22;2019;48.200;11.548;2022-09-09T02:24:05;19.30;68.20
4010;DHT22;2019;48.200;11.548;2022-09-09T02:26:34;19.30;68.40
4010;DHT22;2019;48.200;11.548;2022-09-09T02:29:03;19.20;68.40
4010;DHT22;2019;48.200;11.548;2022-09-09T02:31:30;19.20;68.40
4010;DHT22;2019;48.200;11.548;2022-09-09T02:34:01;19.30;68.60
4010;DHT22;2019;48.200;11.548;2022-09-09T02:36:30;19.20;68.70
4010;DHT22;2019;48.200;11.548;2022-09-09T02:38:58;19.20;68.70
4010;DHT22;2019;48.200;11.548;2022-09-09T02:41:34;19.20;68.80
4010;DHT22;2019;48.200;11.548;2022-09-09T02:44:00;19.20;68.90
4010;DHT22;2019;48.200;11.548;2022-09-09T02:46:53;19.10;68.70
4010;DHT22;2019;48.200;11.548;2022-09-09T02:49:52;19.20;69.00
4010;DHT22;2019;48.200;11.548;2022-09-09T02:52:28;19.10;68.80
4010;DHT22;2019;48.200;11.548;2022-09-09T02:55:04;19.10;68.80
4010;DHT22;2019;48.200;11.548;2022-09-09T02:57:31;19.10;68.80
4010;DHT22;2019;48.200;11.548;2022-09-09T03:00:02;19.10;68.80
4010;DHT22;2019;48.200;11.548;2022-09-09T03:02:33;19.10;68.90
4010;DHT22;2019;48.200;11.548;2022-09-09T03:04:58;19.00;68.80
4010;DHT22;2019;48.200;11.548;2022-09-09T03:07:24;19.00;68.80
4010;DHT22;2019;48.200;11.548;2022-09-09T03:09:50;19.00;68.90
4010;DHT22;2019;48.200;11.548;2022-09-09T03:12:15;19.00;68.90
4010;DHT22;2019;48.200;11.548;2022-09-09T03:14:41;19.00;69.00
4010;DHT22;2019;48.200;11.548;2022-09-09T03:17:08;19.00;69.10
4010;DHT22;2019;48.200;11.548;2022-09-09T03:19:34;19.00;69.20
4010;DHT22;2019;48.200;11.548;2022-09-09T03:22:00;19.00;69.30
4010;DHT22;2019;48.200;11.548;2022-09-09T03:24:26;19.00;69.40
4010;DHT22;2019;48.200;11.548;2022-09-09T03:26:52;19.00;69.40
4010;DHT22;2019;48.200;11.548;2022-09-09T03:29:18;19.00;69.50
4010;DHT22;2019;48.200;11.548;2022-09-09T03:31:44;19.00;69.50
4010;DHT22;2019;48.200;11.548;2022-09-09T03:34:10;19.10;69.60
4010;DHT22;2019;48.200;11.548;2022-09-09T03:36:36;18.90;69.50
4010;DHT22;2019;48.200;11.548;2022-09-09T03:39:02;18.90;69.70
4010;DHT22;2019;48.200;11.548;2022-09-09T03:41:29;19.00;69.80
4010;DHT22;2019;48.200;11.548;2022-09-09T03:43:54;19.00;69.90
4010;DHT22;2019;48.200;11.548;2022-09-09T03:46:21;19.00;69.90
4010;DHT22;2019;48.200;11.548;2022-09-09T03:48:47;19.00;70.00
4010;DHT22;2019;48.200;11.548;2022-09-09T03:51:13;19.00;70.10
4010;DHT22;2019;48.200;11.548;2022-09-09T03:53:40;19.00;70.10
4010;DHT22;2019;48.200;11.548;2022-09-09T03:56:06;19.00;70.10
4010;DHT22;2019;48.200;11.548;2022-09-09T03:58:35;19.00;70.10
4010;DHT22;2019;48.200;11.548;2022-09-09T04:01:14;19.00;70.20
4010;DHT22;2019;48.200;11.548;2022-09-09T04:03:41;19.00;70.20
4010;DHT22;2019;48.200;11.548;2022-09-09T04:06:09;19.00;70.20
4010;DHT22;2019;48.200;11.548;2022-09-09T04:08:37;19.00;70.30
4010;DHT22;2019;48.200;11.548;2022-09-09T04:11:04;19.00;70.30
4010;DHT22;2019;48.200;11.548;2022-09-09T04:13:35;18.90;70.20
4010;DHT22;2019;48.200;11.548;2022-09-09T04:16:03;18.90;70.30
4010;DHT22;2019;48.200;11.548;2022-09-09T04:18:29;18.90;70.30
4010;DHT22;2019;48.200;11.548;2022-09-09T04:20:55;18.90;70.40
4010;DHT22;2019;48.200;11.548;2022-09-09T04:23:25;18.90;70.40
4010;DHT22;2019;48.200;11.548;2022-09-09T04:25:52;18.90;70.40
4010;DHT22;2019;48.200;11.548;2022-09-09T04:28:21;18.90;70.40
4010;DHT22;2019;48.200;11.548;2022-09-09T04:30:46;18.90;70.40
4010;DHT22;2019;48.200;11.548;2022-09-09T04:33:13;18.80;70.30
4010;DHT22;2019;48.200;11.548;2022-09-09T04:35:43;19.00;70.50
4010;DHT22;2019;48.200;11.548;2022-09-09T04:38:09;19.00;70.50
4010;DHT22;2019;48.200;11.548;2022-09-09T04:40:35;19.00;70.50
4010;DHT22;2019;48.200;11.548;2022-09-09T04:43:02;19.00;70.50
4010;DHT22;2019;48.200;11.548;2022-09-09T04:45:31;19.00;70.50
4010;DHT22;2019;48.200;11.548;2022-09-09T04:47:57;19.00;70.50
4010;DHT22;2019;48.200;11.548;2022-09-09T04:50:22;19.00;70.50
4010;DHT22;2019;48.200;11.548;2022-09-09T04:52:48;19.00;70.50
4010;DHT22;2019;48.200;11.548;2022-09-09T04:55:14;19.00;70.40
4010;DHT22;2019;48.200;11.548;2022-09-09T04:57:40;19.00;70.50
4010;DHT22;2019;48.200;11.548;2022-09-09T05:00:06;19.00;70.50
4010;DHT22;2019;48.200;11.548;2022-09-09T05:02:32;19.00;70.60
4010;DHT22;2019;48.200;11.548;2022-09-09T05:04:58;19.00;70.70
4010;DHT22;2019;48.200;11.548;2022-09-09T05:07:24;19.00;70.60
4010;DHT22;2019;48.200;11.548;2022-09-09T05:09:51;19.00;70.50
4010;DHT22;2019;48.200;11.548;2022-09-09T05:12:17;19.00;70.60
4010;DHT22;2019;48.200;11.548;2022-09-09T05:14:43;19.00;70.60
4010;DHT22;2019;48.200;11.548;2022-09-09T05:17:09;19.00;70.60
4010;DHT22;2019;48.200;11.548;2022-09-09T05:19:35;19.00;70.60
4010;DHT22;2019;48.200;11.548;2022-09-09T05:22:00;19.00;70.70
4010;DHT22;2019;48.200;11.548;2022-09-09T05:24:27;19.00;70.70
4010;DHT22;2019;48.200;11.548;2022-09-09T05:26:52;19.00;70.80
4010;DHT22;2019;48.200;11.548;2022-09-09T05:29:18;19.00;70.80
4010;DHT22;2019;48.200;11.548;2022-09-09T05:31:46;19.00;70.90
4010;DHT22;2019;48.200;11.548;2022-09-09T05:34:12;18.90;70.80
4010;DHT22;2019;48.200;11.548;2022-09-09T05:36:40;18.90;70.80
4010;DHT22;2019;48.200;11.548;2022-09-09T05:39:06;18.90;70.90
4010;DHT22;2019;48.200;11.548;2022-09-09T05:41:32;18.90;71.00
4010;DHT22;2019;48.200;11.548;2022-09-09T05:43:58;19.00;71.20
4010;DHT22;2019;48.200;11.548;2022-09-09T05:46:26;18.90;71.30
4010;DHT22;2019;48.200;11.548;2022-09-09T05:48:53;19.00;71.50
4010;DHT22;2019;48.200;11.548;2022-09-09T05:51:24;19.00;71.50
4010;DHT22;2019;48.200;11.548;2022-09-09T05:53:52;19.00;71.70
4010;DHT22;2019;48.200;11.548;2022-09-09T05:56:22;19.00;71.70
4010;DHT22;2019;48.200;11.548;2022-09-09T05:58:51;19.00;71.70
4010;DHT22;2019;48.200;11.548;2022-09-09T06:01:21;19.00;71.60
4010;DHT22;2019;48.200;11.548;2022-09-09T06:03:49;19.00;71.60
4010;DHT22;2019;48.200;11.548;2022-09-09T06:06:20;19.00;71.70
4010;DHT22;2019;48.200;11.548;2022-09-09T06:08:47;19.00;71.40
4010;DHT22;2019;48.200;11.548;2022-09-09T06:11:16;19.00;71.50
4010;DHT22;2019;48.200;11.548;2022-09-09T06:13:42;19.00;71.40
4010;DHT22;2019;48.200;11.548;2022-09-09T06:16:18;19.00;71.30
4010;DHT22;2019;48.200;11.548;2022-09-09T06:18:44;19.00;71.40
4010;DHT22;2019;48.200;11.548;2022-09-09T06:23:41;19.10;71.40
4010;DHT22;2019;48.200;11.548;2022-09-09T06:26:12;19.10;71.40
4010;DHT22;2019;48.200;11.548;2022-09-09T06:28:38;19.10;71.40
4010;DHT22;2019;48.200;11.548;2022-09-09T06:31:06;19.10;71.30
4010;DHT22;2019;48.200;11.548;2022-09-09T06:33:37;19.10;71.20
4010;DHT22;2019;48.200;11.548;2022-09-09T06:36:16;19.10;71.20
4010;DHT22;2019;48.200;11.548;2022-09-09T06:38:42;19.10;71.20
4010;DHT22;2019;48.200;11.548;2022-09-09T06:41:09;19.10;71.20
4010;DHT22;2019;48.200;11.548;2022-09-09T06:43:35;19.20;71.20
4010;DHT22;2019;48.200;11.548;2022-09-09T06:46:06;19.20;71.10
4010;DHT22;2019;48.200;11.548;2022-09-09T06:48:33;19.20;71.10
4010;DHT22;2019;48.200;11.548;2022-09-09T06:51:15;19.20;71.10
4010;DHT22;2019;48.200;11.548;2022-09-09T06:53:42;19.20;70.90
4010;DHT22;2019;48.200;11.548;2022-09-09T06:58:41;19.20;70.80
4010;DHT22;2019;48.200;11.548;2022-09-09T07:01:08;19.30;71.00
4010;DHT22;2019;48.200;11.548;2022-09-09T07:03:35;19.30;70.80
4010;DHT22;2019;48.200;11.548;2022-09-09T07:06:01;19.30;70.90
4010;DHT22;2019;48.200;11.548;2022-09-09T07:08:27;19.30;70.90
4010;DHT22;2019;48.200;11.548;2022-09-09T07:10:53;19.30;71.10
4010;DHT22;2019;48.200;11.548;2022-09-09T07:13:26;19.30;71.40
4010;DHT22;2019;48.200;11.548;2022-09-09T07:15:52;19.40;71.80
4010;DHT22;2019;48.200;11.548;2022-09-09T07:18:19;19.40;71.90
4010;DHT22;2019;48.200;11.548;2022-09-09T07:20:54;19.40;72.10
4010;DHT22;2019;48.200;11.548;2022-09-09T07:23:20;19.40;72.60
4010;DHT22;2019;48.200;11.548;2022-09-09T07:25:46;19.30;72.50
4010;DHT22;2019;48.200;11.548;2022-09-09T07:28:13;19.30;73.80
4010;DHT22;2019;48.200;11.548;2022-09-09T07:30:39;19.30;73.50
4010;DHT22;2019;48.200;11.548;2022-09-09T07:33:06;19.30;73.80
4010;DHT22;2019;48.200;11.548;2022-09-09T07:35:32;19.40;74.40
4010;DHT22;2019;48.200;11.548;2022-09-09T07:37:57;19.30;74.60
4010;DHT22;2019;48.200;11.548;2022-09-09T07:40:25;19.40;75.10
4010;DHT22;2019;48.200;11.548;2022-09-09T07:42:51;19.40;76.00
4010;DHT22;2019;48.200;11.548;2022-09-09T07:45:16;19.40;75.50
4010;DHT22;2019;48.200;11.548;2022-09-09T07:47:42;19.50;75.70
4010;DHT22;2019;48.200;11.548;2022-09-09T07:50:09;19.50;75.80
4010;DHT22;2019;48.200;11.548;2022-09-09T07:52:35;19.60;75.90
4010;DHT22;2019;48.200;11.548;2022-09-09T07:55:01;19.60;75.90
4010;DHT22;2019;48.200;11.548;2022-09-09T07:57:28;19.60;75.90
4010;DHT22;2019;48.200;11.548;2022-09-09T07:59:56;19.70;76.10
4010;DHT22;2019;48.200;11.548;2022-09-09T08:02:23;19.70;76.30
4010;DHT22;2019;48.200;11.548;2022-09-09T08:04:49;19.80;76.30
4010;DHT22;2019;48.200;11.548;2022-09-09T08:07:15;19.80;76.10
4010;DHT22;2019;48.200;11.548;2022-09-09T08:09:41;19.80;76.20
4010;DHT22;2019;48.200;11.548;2022-09-09T08:12:07;19.90;76.50
4010;DHT22;2019;48.200;11.548;2022-09-09T08:14:34;19.90;76.40
4010;DHT22;2019;48.200;11.548;2022-09-09T08:17:00;19.90;76.20
4010;DHT22;2019;48.200;11.548;2022-09-09T08:19:26;20.10;76.30
4010;DHT22;2019;48.200;11.548;2022-09-09T08:21:54;20.00;76.30
4010;DHT22;2019;48.200;11.548;2022-09-09T08:24:20;20.00;76.10
4010;DHT22;2019;48.200;11.548;2022-09-09T08:26:47;20.00;76.20
4010;DHT22;2019;48.200;11.548;2022-09-09T08:29:15;20.00;76.30
4010;DHT22;2019;48.200;11.548;2022-09-09T08:31:49;20.00;76.40
4010;DHT22;2019;48.200;11.548;2022-09-09T08:34:15;20.10;76.60
4010;DHT22;2019;48.200;11.548;2022-09-09T08:36:43;20.10;76.40
4010;DHT22;2019;48.200;11.548;2022-09-09T08:39:11;20.10;76.50
4010;DHT22;2019;48.200;11.548;2022-09-09T08:45:09;20.10;76.60
4010;DHT22;2019;48.200;11.548;2022-09-09T08:53:02;20.10;77.00
4010;DHT22;2019;48.200;11.548;2022-09-09T08:58:16;20.20;77.00
4010;DHT22;2019;48.200;11.548;2022-09-09T09:00:55;20.20;77.00
4010;DHT22;2019;48.200;11.548;2022-09-09T09:09:21;20.20;77.50
4010;DHT22;2019;48.200;11.548;2022-09-09T09:11:51;20.30;77.80
4010;DHT22;2019;48.200;11.548;2022-09-09T09:14:23;20.30;77.80
4010;DHT22;2019;48.200;11.548;2022-09-09T09:17:04;20.40;77.40
4010;DHT22;2019;48.200;11.548;2022-09-09T09:19:33;20.40;76.80
4010;DHT22;2019;48.200;11.548;2022-09-09T09:27:27;20.60;76.20
4010;DHT22;2019;48.200;11.548;2022-09-09T09:29:56;20.60;76.00
4010;DHT22;2019;48.200;11.548;2022-09-09T09:32:24;20.60;75.60
4010;DHT22;2019;48.200;11.548;2022-09-09T09:34:55;20.70;76.10
4010;DHT22;2019;48.200;11.548;2022-09-09T09:37:32;20.80;76.00
4010;DHT22;2019;48.200;11.548;2022-09-09T09:40:14;20.80;75.30
4010;DHT22;2019;48.200;11.548;2022-09-09T09:42:59;20.80;74.70
4010;DHT22;2019;48.200;11.548;2022-09-09T09:45:44;20.80;74.30
4010;DHT22;2019;48.200;11.548;2022-09-09T09:48:13;20.80;74.30
4010;DHT22;2019;48.200;11.548;2022-09-09T09:50:54;20.80;74.60
4010;DHT22;2019;48.200;11.548;2022-09-09T09:53:29;20.80;74.40
4010;DHT22;2019;48.200;11.548;2022-09-09T09:56:01;20.80;74.40
4010;DHT22;2019;48.200;11.548;2022-09-09T09:58:30;20.80;73.80
4010;DHT22;2019;48.200;11.548;2022-09-09T10:00:59;20.80;73.40
4010;DHT22;2019;48.200;11.548;2022-09-09T10:03:28;20.70;73.50
4010;DHT22;2019;48.200;11.548;2022-09-09T10:05:54;20.70;73.60
4010;DHT22;2019;48.200;11.548;2022-09-09T10:08:22;20.70;73.80
4010;DHT22;2019;48.200;11.548;2022-09-09T10:13:32;20.60;72.60
4010;DHT22;2019;48.200;11.548;2022-09-09T10:16:23;20.60;72.10
4010;DHT22;2019;48.200;11.548;2022-09-09T10:19:15;20.60;72.20
4010;DHT22;2019;48.200;11.548;2022-09-09T10:21:51;20.60;71.90
4010;DHT22;2019;48.200;11.548;2022-09-09T10:24:30;20.60;71.70
4010;DHT22;2019;48.200;11.548;2022-09-09T10:30:05;20.60;71.60
4010;DHT22;2019;48.200;11.548;2022-09-09T10:35:21;20.60;71.00
4010;DHT22;2019;48.200;11.548;2022-09-09T10:40:33;20.70;71.30
4010;DHT22;2019;48.200;11.548;2022-09-09T10:46:05;20.80;71.40
4010;DHT22;2019;48.200;11.548;2022-09-09T10:57:00;21.00;71.30
4010;DHT22;2019;48.200;11.548;2022-09-09T10:59:33;21.10;71.10
4010;DHT22;2019;48.200;11.548;2022-09-09T11:04:56;21.20;71.00
4010;DHT22;2019;48.200;11.548;2022-09-09T11:08:04;21.20;71.00
4010;DHT22;2019;48.200;11.548;2022-09-09T11:10:45;21.40;71.00
4010;DHT22;2019;48.200;11.548;2022-09-09T11:16:02;21.60;70.20
4010;DHT22;2019;48.200;11.548;2022-09-09T11:18:31;21.70;69.60
4010;DHT22;2019;48.200;11.548;2022-09-09T11:21:03;21.80;68.80
4010;DHT22;2019;48.200;11.548;2022-09-09T11:23:43;21.90;68.40
4010;DHT22;2019;48.200;11.548;2022-09-09T11:26:21;22.10;68.60
4010;DHT22;2019;48.200;11.548;2022-09-09T11:29:03;22.20;67.60
4010;DHT22;2019;48.200;11.548;2022-09-09T11:32:19;22.30;66.80
4010;DHT22;2019;48.200;11.548;2022-09-09T11:35:11;22.40;66.10
4010;DHT22;2019;48.200;11.548;2022-09-09T11:40:36;22.40;64.10
4010;DHT22;2019;48.200;11.548;2022-09-09T11:45:53;22.40;63.50
4010;DHT22;2019;48.200;11.548;2022-09-09T11:48:36;22.40;63.00
4010;DHT22;2019;48.200;11.548;2022-09-09T11:51:04;22.40;63.30
4010;DHT22;2019;48.200;11.548;2022-09-09T11:53:31;22.40;63.50
4010;DHT22;2019;48.200;11.548;2022-09-09T11:56:12;22.50;64.00
4010;DHT22;2019;48.200;11.548;2022-09-09T11:58:43;22.50;63.10
4010;DHT22;2019;48.200;11.548;2022-09-09T12:01:16;22.50;62.50
4010;DHT22;2019;48.200;11.548;2022-09-09T12:06:31;22.40;62.60
4010;DHT22;2019;48.200;11.548;2022-09-09T12:11:41;22.40;63.30
4010;DHT22;2019;48.200;11.548;2022-09-09T12:17:24;22.40;63.40
4010;DHT22;2019;48.200;11.548;2022-09-09T12:20:06;22.40;62.90
4010;DHT22;2019;48.200;11.548;2022-09-09T12:25:25;22.40;62.60
4010;DHT22;2019;48.200;11.548;2022-09-09T12:28:21;22.40;62.50
4010;DHT22;2019;48.200;11.548;2022-09-09T12:30:59;22.30;62.60
4010;DHT22;2019;48.200;11.548;2022-09-09T12:33:35;22.30;63.00
4010;DHT22;2019;48.200;11.548;2022-09-09T12:36:01;22.30;63.20
4010;DHT22;2019;48.200;11.548;2022-09-09T12:38:38;22.30;63.40
4010;DHT22;2019;48.200;11.548;2022-09-09T12:41:04;22.30;63.40
4010;DHT22;2019;48.200;11.548;2022-09-09T12:43:30;22.30;63.10
4010;DHT22;2019;48.200;11.548;2022-09-09T12:46:06;22.40;63.00
4010;DHT22;2019;48.200;11.548;2022-09-09T12:48:37;22.40;63.10
4010;DHT22;2019;48.200;11.548;2022-09-09T12:51:05;22.40;63.00
4010;DHT22;2019;48.200;11.548;2022-09-09T12:53:35;22.50;63.10
4010;DHT22;2019;48.200;11.548;2022-09-09T12:56:06;22.50;62.90
4010;DHT22;2019;48.200;11.548;2022-09-09T12:58:37;22.50;62.80
4010;DHT22;2019;48.200;11.548;2022-09-09T13:01:04;22.50;62.60
4010;DHT22;2019;48.200;11.548;2022-09-09T13:03:32;22.50;63.50
4010;DHT22;2019;48.200;11.548;2022-09-09T13:06:09;22.50;62.80
4010;DHT22;2019;48.200;11.548;2022-09-09T13:08:36;22.50;62.90
4010;DHT22;2019;48.200;11.548;2022-09-09T13:11:07;22.50;63.20
4010;DHT22;2019;48.200;11.548;2022-09-09T13:13:40;22.50;63.00
4010;DHT22;2019;48.200;11.548;2022-09-09T13:16:18;22.50;62.70
4010;DHT22;2019;48.200;11.548;2022-09-09T13:18:45;22.50;62.60
4010;DHT22;2019;48.200;11.548;2022-09-09T13:21:12;22.40;62.70
4010;DHT22;2019;48.200;11.548;2022-09-09T13:23:37;22.50;62.70
4010;DHT22;2019;48.200;11.548;2022-09-09T13:26:25;22.40;62.80
4010;DHT22;2019;48.200;11.548;2022-09-09T13:28:52;22.50;63.30
4010;DHT22;2019;48.200;11.548;2022-09-09T13:31:28;22.50;63.40
4010;DHT22;2019;48.200;11.548;2022-09-09T13:33:54;22.60;63.10
4010;DHT22;2019;48.200;11.548;2022-09-09T13:36:34;22.60;62.90
4010;DHT22;2019;48.200;11.548;2022-09-09T13:39:01;22.60;63.10
4010;DHT22;2019;48.200;11.548;2022-09-09T13:41:42;22.60;63.10
4010;DHT22;2019;48.200;11.548;2022-09-09T13:44:25;22.70;62.90
4010;DHT22;2019;48.200;11.548;2022-09-09T13:49:30;22.60;62.10
4010;DHT22;2019;48.200;11.548;2022-09-09T13:52:13;22.50;62.00
4010;DHT22;2019;48.200;11.548;2022-09-09T13:54:40;22.50;62.20
4010;DHT22;2019;48.200;11.548;2022-09-09T13:57:20;22.50;62.20
4010;DHT22;2019;48.200;11.548;2022-09-09T13:59:47;22.40;62.20
4010;DHT22;2019;48.200;11.548;2022-09-09T14:02:14;22.30;62.20
4010;DHT22;2019;48.200;11.548;2022-09-09T14:04:40;22.30;62.00
4010;DHT22;2019;48.200;11.548;2022-09-09T14:07:12;22.20;61.90
4010;DHT22;2019;48.200;11.548;2022-09-09T14:09:38;22.20;62.00
4010;DHT22;2019;48.200;11.548;2022-09-09T14:12:04;22.10;62.00
4010;DHT22;2019;48.200;11.548;2022-09-09T14:14:30;22.10;62.00
4010;DHT22;2019;48.200;11.548;2022-09-09T14:16:56;22.00;62.00
4010;DHT22;2019;48.200;11.548;2022-09-09T14:19:21;22.00;62.00
4010;DHT22;2019;48.200;11.548;2022-09-09T14:21:47;21.90;62.40
4010;DHT22;2019;48.200;11.548;2022-09-09T14:24:13;21.90;62.60
4010;DHT22;2019;48.200;11.548;2022-09-09T14:26:39;21.90;62.60
4010;DHT22;2019;48.200;11.548;2022-09-09T14:29:06;21.80;62.70
4010;DHT22;2019;48.200;11.548;2022-09-09T14:31:31;21.80;62.80
4010;DHT22;2019;48.200;11.548;2022-09-09T14:33:57;21.80;63.20
4010;DHT22;2019;48.200;11.548;2022-09-09T14:36:24;21.80;63.30
4010;DHT22;2019;48.200;11.548;2022-09-09T14:38:50;21.70;63.20
4010;DHT22;2019;48.200;11.548;2022-09-09T14:41:17;21.70;63.30
4010;DHT22;2019;48.200;11.548;2022-09-09T14:43:44;21.70;63.40
4010;DHT22;2019;48.200;11.548;2022-09-09T14:46:17;21.60;63.40
4010;DHT22;2019;48.200;11.548;2022-09-09T14:48:43;21.60;63.50
4010;DHT22;2019;48.200;11.548;2022-09-09T14:51:12;21.60;63.70
4010;DHT22;2019;48.200;11.548;2022-09-09T14:53:39;21.60;63.90
4010;DHT22;2019;48.200;11.548;2022-09-09T14:56:13;21.60;63.70
4010;DHT22;2019;48.200;11.548;2022-09-09T14:58:39;21.50;63.50
4010;DHT22;2019;48.200;11.548;2022-09-09T15:01:10;21.50;63.50
4010;DHT22;2019;48.200;11.548;2022-09-09T15:03:36;21.50;63.30
4010;DHT22;2019;48.200;11.548;2022-09-09T15:06:11;21.50;63.00
4010;DHT22;2019;48.200;11.548;2022-09-09T15:08:38;21.40;63.00
4010;DHT22;2019;48.200;11.548;2022-09-09T15:11:05;21.40;63.10
4010;DHT22;2019;48.200;11.548;2022-09-09T15:13:33;21.40;63.10
4010;DHT22;2019;48.200;11.548;2022-09-09T15:16:06;21.30;63.10
4010;DHT22;2019;48.200;11.548;2022-09-09T15:18:33;21.30;63.00
4010;DHT22;2019;48.200;11.548;2022-09-09T15:21:11;21.30;63.30
4010;DHT22;2019;48.200;11.548;2022-09-09T15:23:37;21.40;63.50
4010;DHT22;2019;48.200;11.548;2022-09-09T15:26:03;21.40;63.50
4010;DHT22;2019;48.200;11.548;2022-09-09T15:28:31;21.50;63.50
4010;DHT22;2019;48.200;11.548;2022-09-09T15:30:58;21.50;62.90
4010;DHT22;2019;48.200;11.548;2022-09-09T15:33:25;21.50;62.90
4010;DHT22;2019;48.200;11.548;2022-09-09T15:35:51;21.60;63.10
4010;DHT22;2019;48.200;11.548;2022-09-09T15:38:17;21.60;62.50
4010;DHT22;2019;48.200;11.548;2022-09-09T15:40:43;21.60;62.00
4010;DHT22;2019;48.200;11.548;2022-09-09T15:43:09;21.70;61.80
4010;DHT22;2019;48.200;11.548;2022-09-09T15:45:36;21.70;61.40
4010;DHT22;2019;48.200;11.548;2022-09-09T15:48:03;21.80;61.30
4010;DHT22;2019;48.200;11.548;2022-09-09T15:50:29;21.80;61.70
4010;DHT22;2019;48.200;11.548;2022-09-09T15:52:56;21.90;61.80
4010;DHT22;2019;48.200;11.548;2022-09-09T15:55:22;22.00;61.30
4010;DHT22;2019;48.200;11.548;2022-09-09T15:57:51;22.00;60.50
4010;DHT22;2019;48.200;11.548;2022-09-09T16:00:19;22.00;60.20
4010;DHT22;2019;48.200;11.548;2022-09-09T16:02:48;22.00;60.00
4010;DHT22;2019;48.200;11.548;2022-09-09T16:05:14;21.90;59.60
4010;DHT22;2019;48.200;11.548;2022-09-09T16:07:40;21.80;59.40
4010;DHT22;2019;48.200;11.548;2022-09-09T16:10:08;21.80;59.40
4010;DHT22;2019;48.200;11.548;2022-09-09T16:12:34;21.70;59.30
4010;DHT22;2019;48.200;11.548;2022-09-09T16:14:59;21.70;59.40
4010;DHT22;2019;48.200;11.548;2022-09-09T16:17:25;21.60;59.20
4010;DHT22;2019;48.200;11.548;2022-09-09T16:19:53;21.60;59.40
4010;DHT22;2019;48.200;11.548;2022-09-09T16:22:19;21.60;59.50
4010;DHT22;2019;48.200;11.548;2022-09-09T16:24:45;21.60;59.60
4010;DHT22;2019;48.200;11.548;2022-09-09T16:27:10;21.60;59.60
4010;DHT22;2019;48.200;11.548;2022-09-09T16:29:36;21.60;59.60
4010;DHT22;2019;48.200;11.548;2022-09-09T16:32:02;21.60;59.40
4010;DHT22;2019;48.200;11.548;2022-09-09T16:34:29;21.70;59.40
4010;DHT22;2019;48.200;11.548;2022-09-09T16:36:54;21.60;59.10
4010;DHT22;2019;48.200;11.548;2022-09-09T16:39:20;21.60;58.90
4010;DHT22;2019;48.200;11.548;2022-09-09T16:41:47;21.60;58.80
4010;DHT22;2019;48.200;11.548;2022-09-09T16:44:15;21.60;58.60
4010;DHT22;2019;48.200;11.548;2022-09-09T16:46:43;21.60;58.30
4010;DHT22;2019;48.200;11.548;2022-09-09T16:49:11;21.60;58.10
4010;DHT22;2019;48.200;11.548;2022-09-09T16:51:48;21.60;57.70
4010;DHT22;2019;48.200;11.548;2022-09-09T16:54:14;21.50;57.30
4010;DHT22;2019;48.200;11.548;2022-09-09T16:56:42;21.50;57.40
4010;DHT22;2019;48.200;11.548;2022-09-09T16:59:19;21.40;57.30
4010;DHT22;2019;48.200;11.548;2022-09-09T17:01:47;21.30;57.30
4010;DHT22;2019;48.200;11.548;2022-09-09T17:04:25;21.30;57.40
4010;DHT22;2019;48.200;11.548;2022-09-09T17:06:52;21.30;57.50
4010;DHT22;2019;48.200;11.548;2022-09-09T17:09:20;21.20;57.60
4010;DHT22;2019;48.200;11.548;2022-09-09T17:11:46;21.20;57.70
4010;DHT22;2019;48.200;11.548;2022-09-09T17:14:15;21.20;57.70
4010;DHT22;2019;48.200;11.548;2022-09-09T17:16:42;21.10;57.70
4010;DHT22;2019;48.200;11.548;2022-09-09T17:19:08;21.10;57.90
4010;DHT22;2019;48.200;11.548;2022-09-09T17:21:34;21.00;57.90
4010;DHT22;2019;48.200;11.548;2022-09-09T17:24:01;21.00;58.10
4010;DHT22;2019;48.200;11.548;2022-09-09T17:26:29;20.90;58.20
4010;DHT22;2019;48.200;11.548;2022-09-09T17:28:56;20.80;58.30
4010;DHT22;2019;48.200;11.548;2022-09-09T17:31:24;20.80;58.60
4010;DHT22;2019;48.200;11.548;2022-09-09T17:33:51;20.80;58.90
4010;DHT22;2019;48.200;11.548;2022-09-09T17:36:27;20.70;59.20
4010;DHT22;2019;48.200;11.548;2022-09-09T17:38:53;20.70;59.50
4010;DHT22;2019;48.200;11.548;2022-09-09T17:41:24;20.60;59.70
4010;DHT22;2019;48.200;11.548;2022-09-09T17:43:51;20.60;60.00
4010;DHT22;2019;48.200;11.548;2022-09-09T17:46:20;20.50;60.20
4010;DHT22;2019;48.200;11.548;2022-09-09T17:48:48;20.50;60.50
4010;DHT22;2019;48.200;11.548;2022-09-09T17:51:16;20.50;60.60
4010;DHT22;2019;48.200;11.548;2022-09-09T17:53:46;20.50;60.80
4010;DHT22;2019;48.200;11.548;2022-09-09T17:56:14;20.40;61.00